createdAt,value
2022-09-15T00:00:08.122Z,99.99
2022-09-15T00:01:08.128Z,99.99
2022-09-15T00:02:08.266Z,99.99
2022-09-15T00:03:08.285Z,99.99
2022-09-15T00:04:08.080Z,99.99
2022-09-15T00:05:08.091Z,99.99
2022-09-15T00:06:08.055Z,99.99
2022-09-15T00:07:08.048Z,99.99
2022-09-15T00:08:13.077Z,99.99
2022-09-15T00:09:08.045Z,99.99
2022-09-15T00:10:08.013Z,99.99
2022-09-15T00:11:08.019Z,99.99
2022-09-15T00:12:07.996Z,99.99
2022-09-15T00:13:07.985Z,99.99
2022-09-15T00:14:07.973Z,99.99
2022-09-15T00:15:07.963Z,99.99
2022-09-15T00:16:07.958Z,99.99
2022-09-15T00:17:07.987Z,99.99
2022-09-15T00:18:07.924Z,99.99
2022-09-15T00:19:12.960Z,99.99
2022-09-15T00:20:07.906Z,99.99
2022-09-15T00:21:07.905Z,99.99
2022-09-15T00:22:07.909Z,99.99
2022-09-15T00:23:07.883Z,99.99
2022-09-15T00:24:07.880Z,99.99
2022-09-15T00:25:07.871Z,99.99
2022-09-15T00:26:07.837Z,99.99
2022-09-15T00:27:07.829Z,99.99
2022-09-15T00:28:07.817Z,99.99
2022-09-15T00:29:07.807Z,99.99
2022-09-15T00:30:12.828Z,99.99
2022-09-15T00:31:07.900Z,99.99
2022-09-15T00:32:07.770Z,99.99
2022-09-15T00:33:07.762Z,99.99
2022-09-15T00:34:07.748Z,99.99
2022-09-15T00:35:07.759Z,99.99
2022-09-15T00:36:07.731Z,99.99
2022-09-15T00:37:07.717Z,99.99
2022-09-15T00:38:07.705Z,99.99
2022-09-15T00:39:07.695Z,99.99
2022-09-15T00:40:07.750Z,99.99
2022-09-15T00:41:12.695Z,99.99
2022-09-15T00:42:07.661Z,99.99
2022-09-15T00:43:07.652Z,99.99
2022-09-15T00:44:07.645Z,99.99
2022-09-15T00:45:07.642Z,99.99
2022-09-15T00:46:07.686Z,99.99
2022-09-15T00:47:19.304Z,99.99
2022-09-15T00:48:08.595Z,99.99
2022-09-15T00:49:07.588Z,99.99
2022-09-15T00:50:07.582Z,99.99
2022-09-15T00:51:07.565Z,99.99
2022-09-15T00:52:12.575Z,99.99
2022-09-15T00:53:07.546Z,99.99
2022-09-15T00:54:07.536Z,99.99
2022-09-15T00:55:07.540Z,99.99
2022-09-15T00:56:07.539Z,99.99
2022-09-15T00:57:07.496Z,99.99
2022-09-15T00:58:07.486Z,99.99
2022-09-15T00:59:07.476Z,99.99
2022-09-15T01:00:07.473Z,99.99
2022-09-15T01:01:07.519Z,99.99
2022-09-15T01:02:07.579Z,99.99
2022-09-15T01:03:12.453Z,99.99
2022-09-15T01:04:07.425Z,99.99
2022-09-15T01:05:07.432Z,99.99
2022-09-15T01:06:07.395Z,99.99
2022-09-15T01:07:07.390Z,99.99
2022-09-15T01:08:07.378Z,99.99
2022-09-15T01:09:07.364Z,99.99
2022-09-15T01:10:07.371Z,99.99
2022-09-15T01:11:07.342Z,99.99
2022-09-15T01:12:07.349Z,99.99
2022-09-15T01:13:07.322Z,99.99
2022-09-15T01:14:12.331Z,99.99
2022-09-15T01:15:07.314Z,99.99
2022-09-15T01:16:07.370Z,99.99
2022-09-15T01:17:07.277Z,99.99
2022-09-15T01:18:07.265Z,99.99
2022-09-15T01:19:07.257Z,99.99
2022-09-15T01:20:07.257Z,99.99
2022-09-15T01:21:07.241Z,99.99
2022-09-15T01:22:07.220Z,99.99
2022-09-15T01:23:07.212Z,99.99
2022-09-15T01:24:07.200Z,99.99
2022-09-15T01:25:12.228Z,99.99
2022-09-15T01:26:07.179Z,99.99
2022-09-15T01:27:24.397Z,99.99
2022-09-15T01:28:08.171Z,99.99
2022-09-15T01:29:07.145Z,99.99
2022-09-15T01:30:07.144Z,99.99
2022-09-15T01:31:07.135Z,99.99
2022-09-15T01:32:07.121Z,99.99
2022-09-15T01:33:07.102Z,99.99
2022-09-15T01:34:07.088Z,99.99
2022-09-15T01:35:07.089Z,99.99
2022-09-15T01:36:12.090Z,99.99
2022-09-15T01:37:07.205Z,99.99
2022-09-15T01:38:07.047Z,99.99
2022-09-15T01:39:07.035Z,99.99
2022-09-15T01:40:07.117Z,99.99
2022-09-15T01:41:07.020Z,99.99
2022-09-15T01:42:07.004Z,99.99
2022-09-15T01:43:06.991Z,99.99
2022-09-15T01:44:07.007Z,99.99
2022-09-15T01:45:06.983Z,99.99
2022-09-15T01:46:07.015Z,99.99
2022-09-15T01:47:11.966Z,99.99
2022-09-15T01:48:06.934Z,99.99
2022-09-15T01:49:06.923Z,99.99
2022-09-15T01:50:06.926Z,99.99
2022-09-15T01:51:06.909Z,99.99
2022-09-15T01:52:06.890Z,99.99
2022-09-15T01:53:06.878Z,99.99
2022-09-15T01:54:06.887Z,99.99
2022-09-15T01:55:06.883Z,99.99
2022-09-15T01:56:06.853Z,99.99
2022-09-15T01:57:06.835Z,99.99
2022-09-15T01:58:11.847Z,99.99
2022-09-15T01:59:06.891Z,99.99
2022-09-15T02:00:06.840Z,99.99
2022-09-15T02:01:06.852Z,99.99
2022-09-15T02:02:06.873Z,99.99
2022-09-15T02:03:06.766Z,99.99
2022-09-15T02:04:06.763Z,99.99
2022-09-15T02:05:06.755Z,99.99
2022-09-15T02:06:06.744Z,99.99
2022-09-15T02:07:06.725Z,99.99
2022-09-15T02:08:06.742Z,99.99
2022-09-15T02:09:11.726Z,99.99
2022-09-15T02:10:06.716Z,99.99
2022-09-15T02:11:06.682Z,99.99
2022-09-15T02:12:06.668Z,99.99
2022-09-15T02:13:06.659Z,99.99
2022-09-15T02:14:06.644Z,99.99
2022-09-15T02:15:06.644Z,99.99
2022-09-15T02:16:06.699Z,99.99
2022-09-15T02:17:06.610Z,99.99
2022-09-15T02:18:06.602Z,99.99
2022-09-15T02:19:06.588Z,99.99
2022-09-15T02:20:11.614Z,99.99
2022-09-15T02:21:06.566Z,99.99
2022-09-15T02:22:06.564Z,99.99
2022-09-15T02:23:06.547Z,99.99
2022-09-15T02:24:06.535Z,99.99
2022-09-15T02:25:06.521Z,99.99
2022-09-15T02:26:06.524Z,99.99
2022-09-15T02:27:06.499Z,99.99
2022-09-15T02:28:06.501Z,99.99
2022-09-15T02:29:06.477Z,99.99
2022-09-15T02:30:06.471Z,99.99
2022-09-15T02:31:11.609Z,99.99
2022-09-15T02:32:07.495Z,99.99
2022-09-15T02:33:06.462Z,99.99
2022-09-15T02:34:06.439Z,99.99
2022-09-15T02:35:06.419Z,99.99
2022-09-15T02:36:06.411Z,99.99
2022-09-15T02:37:06.389Z,99.99
2022-09-15T02:38:06.379Z,99.99
2022-09-15T02:39:06.367Z,99.99
2022-09-15T02:40:06.439Z,99.99
2022-09-15T02:41:06.355Z,99.99
2022-09-15T02:42:11.358Z,99.99
2022-09-15T02:43:06.324Z,99.99
2022-09-15T02:44:06.318Z,99.99
2022-09-15T02:45:06.305Z,99.99
2022-09-15T02:46:06.419Z,99.99
2022-09-15T02:47:06.308Z,99.99
2022-09-15T02:48:06.269Z,99.99
2022-09-15T02:49:06.257Z,99.99
2022-09-15T02:50:06.249Z,99.99
2022-09-15T02:51:06.249Z,99.99
2022-09-15T02:52:06.228Z,99.99
2022-09-15T02:53:11.239Z,99.99
2022-09-15T02:54:06.203Z,99.99
2022-09-15T02:55:06.191Z,99.99
2022-09-15T02:56:06.199Z,99.99
2022-09-15T02:57:06.175Z,99.99
2022-09-15T02:58:06.168Z,99.99
2022-09-15T02:59:06.146Z,99.99
2022-09-15T03:00:06.146Z,99.99
2022-09-15T03:01:06.256Z,99.99
2022-09-15T03:02:06.208Z,99.99
2022-09-15T03:03:06.155Z,99.99
2022-09-15T03:04:11.118Z,99.99
2022-09-15T03:05:06.082Z,99.99
2022-09-15T03:06:06.082Z,99.99
2022-09-15T03:07:06.064Z,99.99
2022-09-15T03:08:06.049Z,99.99
2022-09-15T03:09:06.058Z,99.99
2022-09-15T03:10:06.034Z,99.99
2022-09-15T03:11:06.050Z,99.99
2022-09-15T03:12:06.006Z,99.99
2022-09-15T03:13:05.998Z,99.99
2022-09-15T03:14:05.985Z,99.99
2022-09-15T03:15:10.998Z,99.99
2022-09-15T03:16:06.010Z,99.99
2022-09-15T03:17:05.961Z,99.99
2022-09-15T03:18:05.939Z,99.99
2022-09-15T03:19:05.945Z,99.99
2022-09-15T03:20:05.918Z,99.99
2022-09-15T03:21:05.920Z,99.99
2022-09-15T03:22:05.912Z,99.99
2022-09-15T03:23:05.886Z,99.99
2022-09-15T03:24:05.874Z,99.99
2022-09-15T03:25:05.860Z,99.99
2022-09-15T03:26:10.888Z,99.99
2022-09-15T03:27:05.845Z,99.99
2022-09-15T03:28:05.831Z,99.99
2022-09-15T03:29:05.818Z,99.99
2022-09-15T03:30:05.810Z,99.99
2022-09-15T03:31:05.885Z,99.99
2022-09-15T03:32:05.799Z,99.99
2022-09-15T03:33:05.774Z,99.99
2022-09-15T03:34:05.763Z,99.99
2022-09-15T03:35:05.769Z,99.99
2022-09-15T03:36:05.816Z,99.99
2022-09-15T03:37:10.761Z,99.99
2022-09-15T03:38:05.719Z,99.99
2022-09-15T03:39:05.707Z,99.99
2022-09-15T03:40:05.735Z,99.99
2022-09-15T03:41:05.685Z,99.99
2022-09-15T03:42:05.687Z,99.99
2022-09-15T03:43:05.665Z,99.99
2022-09-15T03:44:05.660Z,99.99
2022-09-15T03:45:05.663Z,99.99
2022-09-15T03:46:05.699Z,99.99
2022-09-15T03:47:05.628Z,99.99
2022-09-15T03:48:10.640Z,99.99
2022-09-15T03:49:05.597Z,99.99
2022-09-15T03:50:05.591Z,99.99
2022-09-15T03:51:05.621Z,99.99
2022-09-15T03:52:05.576Z,99.99
2022-09-15T03:53:05.552Z,99.99
2022-09-15T03:54:05.561Z,99.99
2022-09-15T03:55:05.536Z,99.99
2022-09-15T03:56:05.522Z,99.99
2022-09-15T03:57:05.539Z,99.99
2022-09-15T03:58:05.502Z,99.99
2022-09-15T03:59:10.510Z,99.99
2022-09-15T04:00:05.483Z,99.99
2022-09-15T04:01:05.524Z,99.99
2022-09-15T04:02:05.575Z,99.99
2022-09-15T04:03:05.445Z,99.99
2022-09-15T04:04:05.438Z,99.99
2022-09-15T04:05:05.422Z,99.99
2022-09-15T04:06:05.410Z,99.99
2022-09-15T04:07:05.541Z,99.99
2022-09-15T04:08:05.400Z,99.99
2022-09-15T04:09:05.377Z,99.99
2022-09-15T04:10:10.388Z,99.99
2022-09-15T04:11:05.355Z,99.99
2022-09-15T04:12:05.367Z,99.99
2022-09-15T04:13:05.334Z,99.99
2022-09-15T04:14:05.324Z,99.99
2022-09-15T04:15:05.317Z,99.99
2022-09-15T04:16:05.327Z,99.99
2022-09-15T04:17:05.298Z,99.99
2022-09-15T04:18:05.278Z,99.99
2022-09-15T04:19:05.269Z,99.99
2022-09-15T04:20:05.258Z,99.99
2022-09-15T04:21:10.271Z,99.99
2022-09-15T04:22:05.248Z,99.99
2022-09-15T04:23:05.250Z,99.99
2022-09-15T04:24:05.231Z,99.99
2022-09-15T04:25:05.203Z,99.99
2022-09-15T04:26:05.192Z,99.99
2022-09-15T04:27:05.199Z,99.99
2022-09-15T04:28:05.170Z,99.99
2022-09-15T04:29:05.217Z,99.99
2022-09-15T04:30:05.146Z,99.99
2022-09-15T04:31:05.219Z,99.99
2022-09-15T04:32:10.177Z,99.99
2022-09-15T04:33:05.110Z,99.99
2022-09-15T04:34:05.106Z,99.99
2022-09-15T04:35:05.088Z,99.99
2022-09-15T04:36:05.080Z,99.99
2022-09-15T04:37:05.068Z,99.99
2022-09-15T04:38:05.069Z,99.99
2022-09-15T04:39:05.066Z,99.99
2022-09-15T04:40:05.115Z,99.99
2022-09-15T04:41:05.024Z,99.99
2022-09-15T04:42:05.012Z,99.99
2022-09-15T04:43:10.033Z,99.99
2022-09-15T04:44:05.010Z,99.99
2022-09-15T04:45:04.979Z,99.99
2022-09-15T04:46:04.967Z,99.99
2022-09-15T04:47:05.033Z,99.99
2022-09-15T04:48:04.957Z,99.99
2022-09-15T04:49:04.936Z,99.99
2022-09-15T04:50:04.926Z,99.99
2022-09-15T04:51:04.938Z,99.99
2022-09-15T04:52:09.459Z,99.99
2022-09-15T04:53:04.902Z,99.99
2022-09-15T04:54:09.982Z,99.99
2022-09-15T04:55:04.878Z,99.99
2022-09-15T04:56:04.856Z,99.99
2022-09-15T04:57:04.850Z,99.99
2022-09-15T04:58:04.845Z,99.99
2022-09-15T04:59:04.821Z,99.99
2022-09-15T05:00:04.814Z,99.99
2022-09-15T05:01:04.849Z,99.99
2022-09-15T05:02:04.887Z,99.99
2022-09-15T05:03:04.819Z,99.99
2022-09-15T05:04:04.771Z,99.99
2022-09-15T05:05:09.830Z,99.99
2022-09-15T05:06:04.746Z,99.99
2022-09-15T05:07:04.733Z,99.99
2022-09-15T05:08:04.745Z,99.99
2022-09-15T05:09:09.721Z,99.99
2022-09-15T05:10:05.799Z,99.99
2022-09-15T05:11:04.689Z,99.99
2022-09-15T05:12:04.680Z,99.99
2022-09-15T05:13:04.677Z,99.99
2022-09-15T05:14:04.661Z,99.99
2022-09-15T05:15:04.645Z,99.99
2022-09-15T05:16:09.733Z,99.99
2022-09-15T05:17:04.625Z,99.99
2022-09-15T05:18:04.628Z,99.99
2022-09-15T05:19:04.611Z,99.99
2022-09-15T05:20:04.610Z,99.99
2022-09-15T05:21:04.583Z,99.99
2022-09-15T05:22:04.569Z,99.99
2022-09-15T05:23:04.565Z,99.99
2022-09-15T05:24:04.546Z,99.99
2022-09-15T05:25:04.533Z,99.99
2022-09-15T05:26:04.542Z,99.99
2022-09-15T05:27:09.532Z,99.99
2022-09-15T05:28:04.513Z,99.99
2022-09-15T05:29:04.494Z,99.99
2022-09-15T05:30:34.961Z,99.99
2022-09-15T05:31:05.542Z,99.99
2022-09-15T05:32:04.458Z,99.99
2022-09-15T05:33:04.458Z,99.99
2022-09-15T05:34:04.456Z,99.99
2022-09-15T05:35:04.424Z,99.99
2022-09-15T05:36:04.424Z,99.99
2022-09-15T05:37:04.404Z,99.99
2022-09-15T05:38:09.421Z,99.99
2022-09-15T05:39:04.377Z,99.99
2022-09-15T05:40:08.461Z,99.99
2022-09-15T05:41:04.360Z,99.99
2022-09-15T05:42:04.366Z,99.99
2022-09-15T05:43:04.343Z,99.99
2022-09-15T05:44:04.321Z,99.99
2022-09-15T05:45:04.311Z,99.99
2022-09-15T05:46:04.504Z,99.99
2022-09-15T05:47:04.293Z,99.99
2022-09-15T05:48:04.297Z,99.99
2022-09-15T05:49:09.382Z,99.99
2022-09-15T05:50:04.307Z,99.99
2022-09-15T05:51:04.280Z,99.99
2022-09-15T05:52:04.236Z,99.99
2022-09-15T05:53:04.254Z,99.99
2022-09-15T05:54:04.210Z,99.99
2022-09-15T05:55:04.294Z,99.99
2022-09-15T05:56:04.189Z,99.99
2022-09-15T05:57:04.208Z,99.99
2022-09-15T05:58:04.197Z,99.99
2022-09-15T05:59:04.161Z,99.99
2022-09-15T06:00:09.163Z,99.99
2022-09-15T06:01:04.135Z,99.99
2022-09-15T06:02:04.206Z,99.99
2022-09-15T06:03:04.278Z,99.99
2022-09-15T06:04:04.100Z,99.99
2022-09-15T06:05:04.088Z,99.99
2022-09-15T06:06:04.076Z,99.99
2022-09-15T06:07:04.119Z,99.99
2022-09-15T06:08:04.062Z,99.99
2022-09-15T06:09:04.274Z,99.99
2022-09-15T06:10:04.030Z,99.99
2022-09-15T06:11:09.044Z,99.99
2022-09-15T06:12:04.108Z,99.99
2022-09-15T06:13:04.045Z,99.99
2022-09-15T06:14:04.013Z,99.99
2022-09-15T06:15:04.000Z,99.99
2022-09-15T06:16:04.058Z,99.99
2022-09-15T06:17:03.966Z,99.99
2022-09-15T06:18:03.962Z,99.99
2022-09-15T06:19:03.937Z,99.99
2022-09-15T06:20:03.931Z,99.99
2022-09-15T06:21:03.950Z,99.99
2022-09-15T06:22:08.924Z,99.99
2022-09-15T06:23:03.906Z,99.99
2022-09-15T06:24:03.874Z,99.99
2022-09-15T06:25:03.871Z,99.99
2022-09-15T06:26:03.906Z,99.99
2022-09-15T06:27:03.843Z,99.99
2022-09-15T06:28:03.842Z,99.99
2022-09-15T06:29:03.821Z,99.99
2022-09-15T06:30:03.828Z,99.99
2022-09-15T06:31:03.799Z,99.99
2022-09-15T06:32:03.929Z,99.99
2022-09-15T06:33:08.811Z,99.99
2022-09-15T06:34:03.767Z,99.99
2022-09-15T06:35:03.878Z,99.99
2022-09-15T06:36:03.777Z,99.99
2022-09-15T06:37:03.730Z,99.99
2022-09-15T06:38:03.718Z,99.99
2022-09-15T06:39:03.792Z,99.99
2022-09-15T06:40:03.799Z,99.99
2022-09-15T06:41:03.693Z,99.99
2022-09-15T06:42:05.725Z,99.99
2022-09-15T06:43:03.725Z,99.99
2022-09-15T06:44:08.684Z,99.99
2022-09-15T06:45:03.650Z,99.99
2022-09-15T06:46:03.740Z,99.99
2022-09-15T06:47:03.623Z,99.99
2022-09-15T06:48:23.578Z,99.99
2022-09-15T06:49:04.610Z,99.99
2022-09-15T06:50:03.593Z,99.99
2022-09-15T06:51:03.596Z,99.99
2022-09-15T06:52:03.564Z,99.99
2022-09-15T06:53:03.551Z,99.99
2022-09-15T06:54:03.557Z,99.99
2022-09-15T06:55:08.551Z,99.99
2022-09-15T06:56:03.517Z,99.99
2022-09-15T06:57:03.509Z,99.99
2022-09-15T06:58:03.506Z,99.99
2022-09-15T06:59:03.500Z,99.99
2022-09-15T07:00:03.473Z,99.99
2022-09-15T07:01:03.496Z,99.99
2022-09-15T07:02:05.305Z,99.99
2022-09-15T07:03:03.571Z,99.99
2022-09-15T07:04:03.449Z,99.99
2022-09-15T07:05:03.422Z,99.99
2022-09-15T07:06:08.428Z,99.99
2022-09-15T07:07:03.399Z,99.99
2022-09-15T07:08:03.388Z,99.99
2022-09-15T07:09:03.383Z,99.99
2022-09-15T07:10:03.423Z,99.99
2022-09-15T07:11:03.399Z,99.99
2022-09-15T07:12:03.374Z,99.99
2022-09-15T07:13:03.331Z,99.99
2022-09-15T07:14:03.323Z,99.99
2022-09-15T07:15:03.303Z,99.99
2022-09-15T07:16:03.328Z,99.99
2022-09-15T07:17:08.319Z,99.99
2022-09-15T07:18:03.268Z,99.99
2022-09-15T07:19:03.272Z,99.99
2022-09-15T07:20:03.274Z,99.99
2022-09-15T07:21:03.275Z,99.99
2022-09-15T07:22:03.243Z,99.99
2022-09-15T07:23:03.213Z,99.99
2022-09-15T07:24:07.015Z,99.99
2022-09-15T07:25:03.193Z,99.99
2022-09-15T07:26:03.178Z,99.99
2022-09-15T07:27:03.168Z,99.99
2022-09-15T07:28:08.203Z,99.99
2022-09-15T07:29:03.163Z,99.99
2022-09-15T07:30:03.136Z,99.99
2022-09-15T07:31:03.119Z,99.99
2022-09-15T07:32:03.186Z,99.99
2022-09-15T07:33:03.138Z,99.99
2022-09-15T07:34:03.098Z,99.99
2022-09-15T07:35:03.076Z,99.99
2022-09-15T07:36:03.070Z,99.99
2022-09-15T07:37:03.060Z,99.99
2022-09-15T07:38:03.040Z,99.99
2022-09-15T07:39:08.066Z,99.99
2022-09-15T07:40:03.110Z,99.99
2022-09-15T07:41:03.018Z,99.99
2022-09-15T07:42:02.994Z,99.99
2022-09-15T07:43:02.985Z,99.99
2022-09-15T07:44:02.988Z,99.99
2022-09-15T07:45:02.975Z,99.99
2022-09-15T07:46:03.017Z,99.99
2022-09-15T07:47:02.961Z,99.99
2022-09-15T07:48:02.931Z,99.99
2022-09-15T07:49:03.282Z,99.99
2022-09-15T07:50:07.927Z,99.99
2022-09-15T07:51:02.895Z,99.99
2022-09-15T07:52:02.884Z,99.99
2022-09-15T07:53:02.877Z,99.99
2022-09-15T07:54:02.874Z,99.99
2022-09-15T07:55:02.852Z,99.86
2022-09-15T07:56:02.843Z,99.99
2022-09-15T07:57:02.829Z,99.99
2022-09-15T07:58:02.817Z,99.61
2022-09-15T07:59:02.826Z,99.71
2022-09-15T08:00:02.795Z,99.71
2022-09-15T08:01:08.271Z,99.51
2022-09-15T08:02:02.819Z,99.99
2022-09-15T08:03:02.789Z,99.51
2022-09-15T08:04:02.763Z,99.41
2022-09-15T08:05:02.812Z,99.41
2022-09-15T08:06:03.115Z,99.21
2022-09-15T08:07:02.718Z,99.21
2022-09-15T08:08:02.705Z,99.01
2022-09-15T08:09:02.965Z,98.80
2022-09-15T08:10:02.700Z,98.70
2022-09-15T08:11:02.679Z,98.70
2022-09-15T08:12:07.697Z,99.21
2022-09-15T08:13:02.664Z,99.10
2022-09-15T08:14:02.756Z,99.21
2022-09-15T08:15:02.629Z,98.70
2022-09-15T08:16:02.653Z,98.60
2022-09-15T08:17:02.632Z,98.60
2022-09-15T08:18:02.669Z,98.50
2022-09-15T08:19:02.681Z,99.46
2022-09-15T08:20:02.577Z,98.96
2022-09-15T08:21:02.590Z,99.26
2022-09-15T08:22:02.565Z,98.45
2022-09-15T08:23:07.674Z,98.96
2022-09-15T08:24:02.537Z,99.26
2022-09-15T08:25:02.517Z,98.71
2022-09-15T08:26:02.548Z,98.91
2022-09-15T08:27:02.500Z,97.94
2022-09-15T08:28:02.482Z,98.14
2022-09-15T08:29:02.484Z,98.75
2022-09-15T08:30:02.471Z,97.85
2022-09-15T08:31:02.508Z,97.64
2022-09-15T08:32:02.439Z,97.60
2022-09-15T08:33:02.427Z,97.74
2022-09-15T08:34:07.451Z,98.10
2022-09-15T08:35:02.405Z,98.91
2022-09-15T08:36:02.392Z,98.40
2022-09-15T08:37:02.402Z,98.50
2022-09-15T08:38:02.369Z,98.10
2022-09-15T08:39:02.381Z,97.39
2022-09-15T08:40:02.439Z,97.39
2022-09-15T08:41:02.345Z,97.49
2022-09-15T08:42:02.332Z,97.39
2022-09-15T08:43:02.316Z,97.19
2022-09-15T08:44:02.314Z,97.49
2022-09-15T08:45:07.316Z,96.89
2022-09-15T08:46:02.334Z,96.48
2022-09-15T08:47:02.271Z,96.18
2022-09-15T08:48:02.260Z,95.53
2022-09-15T08:49:03.206Z,95.93
2022-09-15T08:50:02.238Z,96.03
2022-09-15T08:51:02.227Z,95.87
2022-09-15T08:52:02.213Z,96.23
2022-09-15T08:53:02.234Z,95.93
2022-09-15T08:54:02.236Z,95.43
2022-09-15T08:55:02.203Z,95.53
2022-09-15T08:56:09.993Z,96.23
2022-09-15T08:57:02.159Z,95.83
2022-09-15T08:58:02.146Z,96.34
2022-09-15T08:59:02.164Z,95.63
2022-09-15T09:00:02.125Z,95.12
2022-09-15T09:01:02.115Z,94.82
2022-09-15T09:02:02.204Z,94.62
2022-09-15T09:03:02.298Z,94.67
2022-09-15T09:04:02.093Z,95.02
2022-09-15T09:05:02.069Z,95.43
2022-09-15T09:06:02.059Z,94.92
2022-09-15T09:07:07.072Z,94.67
2022-09-15T09:08:02.045Z,94.47
2022-09-15T09:09:02.084Z,94.31
2022-09-15T09:10:02.023Z,93.81
2022-09-15T09:11:02.013Z,93.71
2022-09-15T09:12:01.990Z,92.80
2022-09-15T09:13:01.980Z,92.09
2022-09-15T09:14:02.000Z,92.29
2022-09-15T09:15:01.981Z,92.55
2022-09-15T09:16:02.032Z,92.19
2022-09-15T09:17:01.935Z,92.49
2022-09-15T09:18:06.967Z,92.09
2022-09-15T09:19:01.912Z,92.19
2022-09-15T09:20:01.917Z,92.35
2022-09-15T09:21:01.892Z,91.89
2022-09-15T09:22:01.898Z,91.85
2022-09-15T09:23:01.887Z,90.23
2022-09-15T09:24:01.872Z,90.94
2022-09-15T09:25:11.656Z,91.03
2022-09-15T09:26:04.093Z,90.88
2022-09-15T09:27:01.889Z,90.83
2022-09-15T09:28:01.811Z,91.34
2022-09-15T09:29:06.871Z,90.94
2022-09-15T09:30:01.799Z,91.03
2022-09-15T09:31:01.820Z,91.85
2022-09-15T09:32:01.769Z,92.14
2022-09-15T09:33:01.756Z,91.44
2022-09-15T09:34:01.747Z,90.23
2022-09-15T09:35:01.773Z,89.42
2022-09-15T09:36:01.722Z,89.83
2022-09-15T09:37:01.712Z,88.21
2022-09-15T09:38:01.709Z,88.51
2022-09-15T09:39:01.693Z,88.31
2022-09-15T09:40:06.838Z,88.61
2022-09-15T09:41:02.739Z,89.22
2022-09-15T09:42:01.655Z,87.90
2022-09-15T09:43:01.646Z,88.10
2022-09-15T09:44:01.641Z,89.92
2022-09-15T09:45:01.643Z,88.92
2022-09-15T09:46:01.680Z,88.81
2022-09-15T09:47:01.601Z,88.57
2022-09-15T09:48:02.029Z,89.32
2022-09-15T09:49:01.582Z,88.57
2022-09-15T09:50:01.575Z,89.17
2022-09-15T09:51:06.673Z,88.37
2022-09-15T09:52:01.545Z,88.67
2022-09-15T09:53:01.574Z,88.73
2022-09-15T09:54:01.533Z,88.57
2022-09-15T09:55:01.550Z,87.26
2022-09-15T09:56:01.524Z,87.66
2022-09-15T09:57:01.492Z,87.15
2022-09-15T09:58:01.497Z,87.05
2022-09-15T09:59:01.468Z,85.84
2022-09-15T10:00:01.478Z,86.45
2022-09-15T10:01:01.472Z,85.84
2022-09-15T10:02:06.455Z,86.30
2022-09-15T10:13:41.425Z,83.32
2022-09-15T10:14:40.149Z,83.52
2022-09-15T10:15:40.147Z,83.52
2022-09-15T10:16:40.241Z,83.22
2022-09-15T10:17:40.121Z,83.82
2022-09-15T10:18:40.105Z,82.41
2022-09-15T10:19:40.091Z,82.47
2022-09-15T10:20:40.097Z,82.91
2022-09-15T10:21:40.073Z,82.71
2022-09-15T10:22:40.067Z,82.21
2022-09-15T10:23:40.048Z,82.17
2022-09-15T10:24:45.076Z,82.21
2022-09-15T10:25:58.059Z,81.70
2022-09-15T10:26:41.014Z,81.36
2022-09-15T10:27:40.003Z,80.96
2022-09-15T10:28:39.996Z,81.30
2022-09-15T10:29:40.007Z,80.08
2022-09-15T10:30:39.979Z,80.76
2022-09-15T10:31:40.045Z,81.67
2022-09-15T10:32:39.947Z,82.01
2022-09-15T10:33:39.935Z,82.41
2022-09-15T10:34:39.928Z,81.96
2022-09-15T10:35:44.971Z,81.67
2022-09-15T10:36:39.904Z,81.16
2022-09-15T10:37:39.894Z,81.46
2022-09-15T10:38:39.880Z,81.16
2022-09-15T10:39:39.870Z,80.85
2022-09-15T10:40:39.874Z,80.55
2022-09-15T10:41:39.845Z,80.11
2022-09-15T10:42:39.840Z,79.81
2022-09-15T10:43:39.832Z,79.61
2022-09-15T10:44:39.816Z,79.50
2022-09-15T10:45:39.933Z,79.36
2022-09-15T10:46:44.828Z,79.97
2022-09-15T10:47:39.778Z,78.56
2022-09-15T10:48:39.771Z,78.26
2022-09-15T10:49:39.759Z,77.01
2022-09-15T10:50:39.763Z,76.00
2022-09-15T10:51:39.739Z,76.71
2022-09-15T10:52:39.743Z,76.31
2022-09-15T10:53:39.714Z,77.01
2022-09-15T10:54:39.702Z,76.71
2022-09-15T10:55:52.346Z,77.28
2022-09-15T10:56:40.683Z,76.57
2022-09-15T10:57:44.699Z,76.77
2022-09-15T10:58:42.175Z,77.08
2022-09-15T10:59:40.646Z,76.37
2022-09-15T11:00:39.688Z,76.27
2022-09-15T11:01:39.683Z,76.77
2022-09-15T11:02:39.621Z,75.96
2022-09-15T11:03:39.618Z,75.67
2022-09-15T11:04:39.602Z,76.37
2022-09-15T11:05:39.594Z,75.06
2022-09-15T11:06:39.569Z,75.46
2022-09-15T11:07:39.564Z,75.06
2022-09-15T11:08:44.619Z,75.46
2022-09-15T11:09:39.536Z,75.06
2022-09-15T11:10:39.538Z,75.16
2022-09-15T11:11:39.515Z,76.14
2022-09-15T11:12:39.505Z,73.82
2022-09-15T11:13:39.491Z,73.82
2022-09-15T11:14:39.488Z,73.92
2022-09-15T11:15:39.485Z,73.61
2022-09-15T11:16:39.536Z,73.28
2022-09-15T11:17:39.470Z,73.52
2022-09-15T11:18:39.442Z,73.01
2022-09-15T11:19:44.444Z,73.21
2022-09-15T11:20:39.449Z,71.40
2022-09-15T11:21:39.403Z,72.88
2022-09-15T11:22:39.392Z,71.87
2022-09-15T11:23:39.395Z,71.97
2022-09-15T11:24:39.367Z,71.56
2022-09-15T11:25:39.366Z,73.38
2022-09-15T11:26:39.346Z,71.73
2022-09-15T11:27:39.333Z,71.03
2022-09-15T11:28:39.324Z,70.73
2022-09-15T11:29:39.318Z,71.13
2022-09-15T11:30:47.660Z,71.73
2022-09-15T11:31:39.461Z,71.63
2022-09-15T11:32:39.295Z,71.73
2022-09-15T11:33:39.284Z,71.43
2022-09-15T11:34:39.257Z,71.33
2022-09-15T11:35:39.264Z,71.36
2022-09-15T11:36:39.239Z,72.57
2022-09-15T11:37:39.224Z,72.67
2022-09-15T11:38:39.227Z,71.47
2022-09-15T11:39:39.197Z,71.80
2022-09-15T11:40:39.186Z,71.50
2022-09-15T11:41:44.208Z,71.50
2022-09-15T11:42:39.165Z,71.80
2022-09-15T11:43:39.151Z,71.50
2022-09-15T11:44:39.141Z,71.50
2022-09-15T11:45:39.130Z,72.11
2022-09-15T11:46:39.263Z,71.30
2022-09-15T11:47:39.107Z,71.77
2022-09-15T11:48:39.097Z,72.37
2022-09-15T11:49:39.133Z,71.33
2022-09-15T11:50:39.073Z,69.42
2022-09-15T11:51:39.073Z,70.12
2022-09-15T11:52:44.071Z,69.82
2022-09-15T11:53:39.043Z,70.23
2022-09-15T11:54:39.029Z,70.03
2022-09-15T11:55:39.020Z,69.79
2022-09-15T11:56:39.019Z,69.62
2022-09-15T11:57:38.994Z,69.42
2022-09-15T11:58:38.985Z,69.92
2022-09-15T11:59:38.986Z,70.12
2022-09-15T12:00:38.964Z,69.85
2022-09-15T12:01:39.040Z,69.82
2022-09-15T12:02:38.996Z,69.12
2022-09-15T12:03:44.047Z,68.51
2022-09-15T12:04:38.921Z,68.01
2022-09-15T12:05:38.924Z,69.02
2022-09-15T12:06:43.323Z,69.12
2022-09-15T12:07:39.880Z,69.02
2022-09-15T12:08:38.871Z,68.68
2022-09-15T12:09:38.861Z,67.05
2022-09-15T12:10:38.855Z,66.95
2022-09-15T12:11:38.852Z,67.08
2022-09-15T12:12:38.837Z,66.55
2022-09-15T12:13:38.814Z,66.98
2022-09-15T12:14:43.827Z,67.08
2022-09-15T12:15:38.847Z,67.25
2022-09-15T12:16:38.794Z,64.91
2022-09-15T12:17:38.768Z,63.98
2022-09-15T12:18:41.702Z,65.18
2022-09-15T12:19:39.745Z,65.31
2022-09-15T12:20:38.737Z,65.31
2022-09-15T12:21:38.761Z,64.40
2022-09-15T12:22:38.724Z,65.61
2022-09-15T12:23:38.705Z,65.58
2022-09-15T12:24:38.699Z,66.68
2022-09-15T12:25:43.701Z,64.75
2022-09-15T12:26:38.694Z,65.48
2022-09-15T12:27:38.658Z,65.51
2022-09-15T12:28:38.650Z,65.54
2022-09-15T12:29:41.816Z,66.24
2022-09-15T12:30:38.629Z,65.48
2022-09-15T12:31:38.718Z,63.45
2022-09-15T12:32:38.605Z,62.38
2022-09-15T12:33:38.595Z,62.55
2022-09-15T12:34:38.590Z,63.48
2022-09-15T12:35:38.569Z,64.22
2022-09-15T12:36:43.606Z,63.64
2022-09-15T12:37:38.555Z,64.28
2022-09-15T12:38:38.534Z,64.28
2022-09-15T12:39:38.672Z,65.01
2022-09-15T12:40:38.592Z,65.44
2022-09-15T12:41:38.519Z,64.54
2022-09-15T12:42:38.491Z,65.97
2022-09-15T12:43:38.483Z,65.37
2022-09-15T12:44:38.472Z,66.88
2022-09-15T12:45:38.464Z,65.91
2022-09-15T12:46:38.506Z,66.81
2022-09-15T12:47:43.476Z,66.94
2022-09-15T12:48:38.427Z,67.04
2022-09-15T12:49:38.415Z,66.74
2022-09-15T12:50:38.402Z,66.24
2022-09-15T12:51:38.394Z,66.34
2022-09-15T12:52:38.410Z,67.44
2022-09-15T12:53:39.085Z,67.44
2022-09-15T12:54:38.360Z,67.65
2022-09-15T12:55:38.359Z,67.35
2022-09-15T12:56:38.339Z,67.58
2022-09-15T12:57:38.336Z,67.47
2022-09-15T12:58:43.334Z,67.04
2022-09-15T12:59:38.322Z,67.14
2022-09-15T13:00:45.628Z,67.88
2022-09-15T13:01:39.317Z,67.07
2022-09-15T13:02:38.368Z,66.27